sensor_id;sensor_type;location;lat;lon;timestamp;temperature;humidity
71649;SHT31;70112;45.624;11.760;2024-02-21T00:01:14;10.68;69.79
71649;SHT31;70112;45.624;11.760;2024-02-21T00:03:48;10.67;69.79
71649;SHT31;70112;45.624;11.760;2024-02-21T00:06:19;10.67;69.77
71649;SHT31;70112;45.624;11.760;2024-02-21T00:08:44;10.66;69.80
71649;SHT31;70112;45.624;11.760;2024-02-21T00:11:10;10.64;69.90
71649;SHT31;70112;45.624;11.760;2024-02-21T00:16:15;10.59;69.89
71649;SHT31;70112;45.624;11.760;2024-02-21T00:18:42;10.56;69.90
71649;SHT31;70112;45.624;11.760;2024-02-21T00:21:10;10.52;69.91
71649;SHT31;70112;45.624;11.760;2024-02-21T00:23:43;10.49;69.94
71649;SHT31;70112;45.624;11.760;2024-02-21T00:26:15;10.45;69.90
71649;SHT31;70112;45.624;11.760;2024-02-21T00:28:41;10.41;69.90
71649;SHT31;70112;45.624;11.760;2024-02-21T00:31:07;10.36;69.90
71649;SHT31;70112;45.624;11.760;2024-02-21T00:33:32;10.32;69.97
71649;SHT31;70112;45.624;11.760;2024-02-21T00:35:58;10.29;69.99
71649;SHT31;70112;45.624;11.760;2024-02-21T00:38:27;10.27;69.96
71649;SHT31;70112;45.624;11.760;2024-02-21T00:40:52;10.26;69.97
71649;SHT31;70112;45.624;11.760;2024-02-21T00:43:18;10.25;69.93
71649;SHT31;70112;45.624;11.760;2024-02-21T00:45:49;10.24;69.83
71649;SHT31;70112;45.624;11.760;2024-02-21T00:48:18;10.25;69.81
71649;SHT31;70112;45.624;11.760;2024-02-21T00:50:54;10.25;69.77
71649;SHT31;70112;45.624;11.760;2024-02-21T00:53:19;10.23;69.80
71649;SHT31;70112;45.624;11.760;2024-02-21T00:55:45;10.21;69.80
71649;SHT31;70112;45.624;11.760;2024-02-21T00:58:14;10.20;69.80
71649;SHT31;70112;45.624;11.760;2024-02-21T01:00:39;10.19;69.84
71649;SHT31;70112;45.624;11.760;2024-02-21T01:03:08;10.16;69.82
71649;SHT31;70112;45.624;11.760;2024-02-21T01:05:34;10.12;69.87
71649;SHT31;70112;45.624;11.760;2024-02-21T01:07:59;10.08;69.98
71649;SHT31;70112;45.624;11.760;2024-02-21T01:10:35;10.09;69.99
71649;SHT31;70112;45.624;11.760;2024-02-21T01:13:00;10.09;70.02
71649;SHT31;70112;45.624;11.760;2024-02-21T01:15:37;10.09;70.09
71649;SHT31;70112;45.624;11.760;2024-02-21T01:18:05;10.07;70.09
71649;SHT31;70112;45.624;11.760;2024-02-21T01:20:31;10.03;69.95
71649;SHT31;70112;45.624;11.760;2024-02-21T01:23:00;9.99;70.00
71649;SHT31;70112;45.624;11.760;2024-02-21T01:25:25;9.96;69.97
71649;SHT31;70112;45.624;11.760;2024-02-21T01:27:51;9.91;69.82
71649;SHT31;70112;45.624;11.760;2024-02-21T01:30:17;9.84;69.84
71649;SHT31;70112;45.624;11.760;2024-02-21T01:32:45;9.81;69.91
71649;SHT31;70112;45.624;11.760;2024-02-21T01:35:11;9.80;69.92
71649;SHT31;70112;45.624;11.760;2024-02-21T01:37:36;9.81;69.98
71649;SHT31;70112;45.624;11.760;2024-02-21T01:40:02;9.82;69.94
71649;SHT31;70112;45.624;11.760;2024-02-21T01:42:28;9.82;69.90
71649;SHT31;70112;45.624;11.760;2024-02-21T01:44:54;9.82;69.90
71649;SHT31;70112;45.624;11.760;2024-02-21T01:47:22;9.84;69.80
71649;SHT31;70112;45.624;11.760;2024-02-21T01:49:55;9.85;69.77
71649;SHT31;70112;45.624;11.760;2024-02-21T01:55:00;9.85;69.75
71649;SHT31;70112;45.624;11.760;2024-02-21T01:57:42;9.84;69.73
71649;SHT31;70112;45.624;11.760;2024-02-21T02:00:12;9.85;69.66
71649;SHT31;70112;45.624;11.760;2024-02-21T02:02:41;9.84;69.61
71649;SHT31;70112;45.624;11.760;2024-02-21T02:05:07;9.83;69.69
71649;SHT31;70112;45.624;11.760;2024-02-21T02:07:33;9.83;69.61
71649;SHT31;70112;45.624;11.760;2024-02-21T02:09:59;9.83;69.60
71649;SHT31;70112;45.624;11.760;2024-02-21T02:12:25;9.80;69.51
71649;SHT31;70112;45.624;11.760;2024-02-21T02:14:59;9.76;69.50
71649;SHT31;70112;45.624;11.760;2024-02-21T02:17:29;9.73;69.46
71649;SHT31;70112;45.624;11.760;2024-02-21T02:22:33;9.68;69.22
71649;SHT31;70112;45.624;11.760;2024-02-21T02:25:02;9.60;69.17
71649;SHT31;70112;45.624;11.760;2024-02-21T02:27:29;9.52;69.13
71649;SHT31;70112;45.624;11.760;2024-02-21T02:29:54;9.44;69.06
71649;SHT31;70112;45.624;11.760;2024-02-21T02:32:20;9.42;69.18
71649;SHT31;70112;45.624;11.760;2024-02-21T02:34:46;9.40;69.22
71649;SHT31;70112;45.624;11.760;2024-02-21T02:37:12;9.36;69.14
71649;SHT31;70112;45.624;11.760;2024-02-21T02:39:39;9.33;68.99
71649;SHT31;70112;45.624;11.760;2024-02-21T02:42:18;9.27;68.93
71649;SHT31;70112;45.624;11.760;2024-02-21T02:44:44;9.23;68.91
71649;SHT31;70112;45.624;11.760;2024-02-21T02:47:12;9.19;69.00
71649;SHT31;70112;45.624;11.760;2024-02-21T02:49:37;9.19;69.01
71649;SHT31;70112;45.624;11.760;2024-02-21T02:52:03;9.16;69.18
71649;SHT31;70112;45.624;11.760;2024-02-21T02:54:39;9.09;69.46
71649;SHT31;70112;45.624;11.760;2024-02-21T02:57:07;9.03;69.64
71649;SHT31;70112;45.624;11.760;2024-02-21T02:59:33;9.02;69.70
71649;SHT31;70112;45.624;11.760;2024-02-21T03:01:59;9.01;69.73
71649;SHT31;70112;45.624;11.760;2024-02-21T03:04:27;8.98;69.83
71649;SHT31;70112;45.624;11.760;2024-02-21T03:09:48;8.94;70.03
71649;SHT31;70112;45.624;11.760;2024-02-21T03:12:18;8.91;70.08
71649;SHT31;70112;45.624;11.760;2024-02-21T03:14:52;8.87;70.08
71649;SHT31;70112;45.624;11.760;2024-02-21T03:17:18;8.82;70.16
71649;SHT31;70112;45.624;11.760;2024-02-21T03:19:54;8.81;70.21
71649;SHT31;70112;45.624;11.760;2024-02-21T03:22:25;8.81;70.21
71649;SHT31;70112;45.624;11.760;2024-02-21T03:24:53;8.78;70.26
71649;SHT31;70112;45.624;11.760;2024-02-21T03:27:18;8.78;70.28
71649;SHT31;70112;45.624;11.760;2024-02-21T03:29:47;8.77;70.30
71649;SHT31;70112;45.624;11.760;2024-02-21T03:32:12;8.75;70.26
71649;SHT31;70112;45.624;11.760;2024-02-21T03:34:51;8.69;70.11
71649;SHT31;70112;45.624;11.760;2024-02-21T03:37:17;8.62;70.10
71649;SHT31;70112;45.624;11.760;2024-02-21T03:39:46;8.59;70.04
71649;SHT31;70112;45.624;11.760;2024-02-21T03:42:12;8.58;69.93
71649;SHT31;70112;45.624;11.760;2024-02-21T03:44:46;8.57;69.90
71649;SHT31;70112;45.624;11.760;2024-02-21T03:47:12;8.59;69.79
71649;SHT31;70112;45.624;11.760;2024-02-21T03:49:41;8.60;69.68
71649;SHT31;70112;45.624;11.760;2024-02-21T03:52:07;8.61;69.66
71649;SHT31;70112;45.624;11.760;2024-02-21T03:54:43;8.61;69.66
71649;SHT31;70112;45.624;11.760;2024-02-21T03:57:12;8.61;69.62
71649;SHT31;70112;45.624;11.760;2024-02-21T03:59:51;8.60;69.53
71649;SHT31;70112;45.624;11.760;2024-02-21T04:02:17;8.59;69.44
71649;SHT31;70112;45.624;11.760;2024-02-21T04:04:51;8.58;69.37
71649;SHT31;70112;45.624;11.760;2024-02-21T04:07:19;8.56;69.38
71649;SHT31;70112;45.624;11.760;2024-02-21T04:09:51;8.53;69.30
71649;SHT31;70112;45.624;11.760;2024-02-21T04:12:19;8.52;69.29
71649;SHT31;70112;45.624;11.760;2024-02-21T04:14:51;8.50;69.20
71649;SHT31;70112;45.624;11.760;2024-02-21T04:17:41;8.48;69.21
71649;SHT31;70112;45.624;11.760;2024-02-21T04:20:13;8.48;69.21
71649;SHT31;70112;45.624;11.760;2024-02-21T04:22:45;8.47;69.20
71649;SHT31;70112;45.624;11.760;2024-02-21T04:25:20;8.48;69.15
71649;SHT31;70112;45.624;11.760;2024-02-21T04:27:46;8.46;69.10
71649;SHT31;70112;45.624;11.760;2024-02-21T04:30:15;8.46;69.08
71649;SHT31;70112;45.624;11.760;2024-02-21T04:33:10;8.43;69.05
71649;SHT31;70112;45.624;11.760;2024-02-21T04:35:39;8.38;69.10
71649;SHT31;70112;45.624;11.760;2024-02-21T04:38:07;8.37;69.05
71649;SHT31;70112;45.624;11.760;2024-02-21T04:40:35;8.36;68.90
71649;SHT31;70112;45.624;11.760;2024-02-21T04:43:35;8.31;68.99
71649;SHT31;70112;45.624;11.760;2024-02-21T04:46:10;8.28;68.94
71649;SHT31;70112;45.624;11.760;2024-02-21T04:48:39;8.27;68.99
71649;SHT31;70112;45.624;11.760;2024-02-21T04:51:07;8.27;69.04
71649;SHT31;70112;45.624;11.760;2024-02-21T04:53:37;8.26;69.11
71649;SHT31;70112;45.624;11.760;2024-02-21T04:56:05;8.26;69.12
71649;SHT31;70112;45.624;11.760;2024-02-21T04:58:54;8.26;69.12
71649;SHT31;70112;45.624;11.760;2024-02-21T05:01:49;8.25;69.17
71649;SHT31;70112;45.624;11.760;2024-02-21T05:04:15;8.24;69.10
71649;SHT31;70112;45.624;11.760;2024-02-21T05:06:41;8.25;69.07
71649;SHT31;70112;45.624;11.760;2024-02-21T05:09:07;8.26;69.17
71649;SHT31;70112;45.624;11.760;2024-02-21T05:11:36;8.28;69.17
71649;SHT31;70112;45.624;11.760;2024-02-21T05:14:05;8.27;69.23
71649;SHT31;70112;45.624;11.760;2024-02-21T05:16:31;8.25;69.27
71649;SHT31;70112;45.624;11.760;2024-02-21T05:18:57;8.23;69.37
71649;SHT31;70112;45.624;11.760;2024-02-21T05:21:23;8.21;69.43
71649;SHT31;70112;45.624;11.760;2024-02-21T05:23:50;8.20;69.42
71649;SHT31;70112;45.624;11.760;2024-02-21T05:26:25;8.21;69.38
71649;SHT31;70112;45.624;11.760;2024-02-21T05:28:52;8.20;69.53
71649;SHT31;70112;45.624;11.760;2024-02-21T05:31:21;8.19;69.66
71649;SHT31;70112;45.624;11.760;2024-02-21T05:33:46;8.19;69.60
71649;SHT31;70112;45.624;11.760;2024-02-21T05:36:12;8.22;69.54
71649;SHT31;70112;45.624;11.760;2024-02-21T05:38:45;8.25;69.30
71649;SHT31;70112;45.624;11.760;2024-02-21T05:41:10;8.29;68.94
71649;SHT31;70112;45.624;11.760;2024-02-21T05:43:36;8.34;68.94
71649;SHT31;70112;45.624;11.760;2024-02-21T05:46:02;8.36;68.97
71649;SHT31;70112;45.624;11.760;2024-02-21T05:48:28;8.38;69.12
71649;SHT31;70112;45.624;11.760;2024-02-21T05:50:53;8.38;69.44
71649;SHT31;70112;45.624;11.760;2024-02-21T05:53:19;8.35;69.53
71649;SHT31;70112;45.624;11.760;2024-02-21T05:55:45;8.35;69.53
71649;SHT31;70112;45.624;11.760;2024-02-21T05:58:13;8.34;69.56
71649;SHT31;70112;45.624;11.760;2024-02-21T06:00:39;8.35;69.52
71649;SHT31;70112;45.624;11.760;2024-02-21T06:03:05;8.36;69.30
71649;SHT31;70112;45.624;11.760;2024-02-21T06:05:31;8.37;69.11
71649;SHT31;70112;45.624;11.760;2024-02-21T06:07:57;8.36;68.95
71649;SHT31;70112;45.624;11.760;2024-02-21T06:10:23;8.36;68.86
71649;SHT31;70112;45.624;11.760;2024-02-21T06:12:48;8.38;68.65
71649;SHT31;70112;45.624;11.760;2024-02-21T06:15:14;8.41;68.60
71649;SHT31;70112;45.624;11.760;2024-02-21T06:17:39;8.42;68.63
71649;SHT31;70112;45.624;11.760;2024-02-21T06:20:05;8.44;68.71
71649;SHT31;70112;45.624;11.760;2024-02-21T06:22:34;8.43;68.84
71649;SHT31;70112;45.624;11.760;2024-02-21T06:25:02;8.42;68.86
71649;SHT31;70112;45.624;11.760;2024-02-21T06:27:49;8.40;68.87
71649;SHT31;70112;45.624;11.760;2024-02-21T06:30:14;8.38;68.82
71649;SHT31;70112;45.624;11.760;2024-02-21T06:33:17;8.34;68.79
71649;SHT31;70112;45.624;11.760;2024-02-21T06:35:52;8.35;68.77
71649;SHT31;70112;45.624;11.760;2024-02-21T06:38:19;8.35;68.80
71649;SHT31;70112;45.624;11.760;2024-02-21T06:43:41;8.38;68.69
71649;SHT31;70112;45.624;11.760;2024-02-21T06:46:07;8.40;68.74
71649;SHT31;70112;45.624;11.760;2024-02-21T06:48:33;8.43;68.66
71649;SHT31;70112;45.624;11.760;2024-02-21T06:51:19;8.46;68.69
71649;SHT31;70112;45.624;11.760;2024-02-21T06:54:08;8.52;68.63
71649;SHT31;70112;45.624;11.760;2024-02-21T06:56:33;8.58;68.57
71649;SHT31;70112;45.624;11.760;2024-02-21T06:59:01;8.63;68.59
71649;SHT31;70112;45.624;11.760;2024-02-21T07:01:28;8.70;68.44
71649;SHT31;70112;45.624;11.760;2024-02-21T07:03:55;8.77;68.18
71649;SHT31;70112;45.624;11.760;2024-02-21T07:06:21;8.81;68.02
71649;SHT31;70112;45.624;11.760;2024-02-21T07:08:50;8.86;68.65
71649;SHT31;70112;45.624;11.760;2024-02-21T07:14:18;8.97;69.32
71649;SHT31;70112;45.624;11.760;2024-02-21T07:16:44;9.01;69.11
71649;SHT31;70112;45.624;11.760;2024-02-21T07:19:10;9.07;69.36
71649;SHT31;70112;45.624;11.760;2024-02-21T07:21:35;9.12;69.41
71649;SHT31;70112;45.624;11.760;2024-02-21T07:24:03;9.18;69.23
71649;SHT31;70112;45.624;11.760;2024-02-21T07:26:32;9.25;69.26
71649;SHT31;70112;45.624;11.760;2024-02-21T07:29:21;9.34;69.58
71649;SHT31;70112;45.624;11.760;2024-02-21T07:31:50;9.41;69.70
71649;SHT31;70112;45.624;11.760;2024-02-21T07:34:22;9.50;69.88
71649;SHT31;70112;45.624;11.760;2024-02-21T07:36:47;9.57;69.98
71649;SHT31;70112;45.624;11.760;2024-02-21T07:39:13;9.65;69.58
71649;SHT31;70112;45.624;11.760;2024-02-21T07:41:39;9.74;68.92
71649;SHT31;70112;45.624;11.760;2024-02-21T07:44:06;9.81;68.56
71649;SHT31;70112;45.624;11.760;2024-02-21T07:46:34;9.93;68.50
71649;SHT31;70112;45.624;11.760;2024-02-21T07:49:00;10.04;68.47
71649;SHT31;70112;45.624;11.760;2024-02-21T07:51:33;10.11;68.33
71649;SHT31;70112;45.624;11.760;2024-02-21T07:54:01;10.17;68.08
71649;SHT31;70112;45.624;11.760;2024-02-21T07:56:32;10.23;67.83
71649;SHT31;70112;45.624;11.760;2024-02-21T07:59:22;10.30;67.76
71649;SHT31;70112;45.624;11.760;2024-02-21T08:01:47;10.38;67.53
71649;SHT31;70112;45.624;11.760;2024-02-21T08:04:21;10.44;67.17
71649;SHT31;70112;45.624;11.760;2024-02-21T08:06:53;10.52;66.97
71649;SHT31;70112;45.624;11.760;2024-02-21T08:09:21;10.58;67.11
71649;SHT31;70112;45.624;11.760;2024-02-21T08:11:55;10.64;67.08
71649;SHT31;70112;45.624;11.760;2024-02-21T08:14:21;10.71;66.90
71649;SHT31;70112;45.624;11.760;2024-02-21T08:16:52;10.80;66.58
71649;SHT31;70112;45.624;11.760;2024-02-21T08:19:18;10.90;66.32
71649;SHT31;70112;45.624;11.760;2024-02-21T08:21:44;10.98;66.11
71649;SHT31;70112;45.624;11.760;2024-02-21T08:24:12;11.06;65.60
71649;SHT31;70112;45.624;11.760;2024-02-21T08:26:41;11.13;64.66
71649;SHT31;70112;45.624;11.760;2024-02-21T08:29:07;11.20;64.30
71649;SHT31;70112;45.624;11.760;2024-02-21T08:31:49;11.28;64.05
71649;SHT31;70112;45.624;11.760;2024-02-21T08:34:36;11.35;63.96
71649;SHT31;70112;45.624;11.760;2024-02-21T08:37:01;11.46;63.64
71649;SHT31;70112;45.624;11.760;2024-02-21T08:39:26;11.55;63.01
71649;SHT31;70112;45.624;11.760;2024-02-21T08:42:14;11.69;62.45
71649;SHT31;70112;45.624;11.760;2024-02-21T08:44:39;11.90;61.88
71649;SHT31;70112;45.624;11.760;2024-02-21T08:47:06;12.09;61.24
71649;SHT31;70112;45.624;11.760;2024-02-21T08:49:34;12.55;60.77
71649;SHT31;70112;45.624;11.760;2024-02-21T08:51:59;13.57;59.65
71649;SHT31;70112;45.624;11.760;2024-02-21T08:54:25;14.59;58.31
71649;SHT31;70112;45.624;11.760;2024-02-21T08:56:51;15.60;56.85
71649;SHT31;70112;45.624;11.760;2024-02-21T08:59:16;16.64;54.58
71649;SHT31;70112;45.624;11.760;2024-02-21T09:01:42;17.52;52.89
71649;SHT31;70112;45.624;11.760;2024-02-21T09:04:09;18.34;51.71
71649;SHT31;70112;45.624;11.760;2024-02-21T09:06:34;19.17;50.16
71649;SHT31;70112;45.624;11.760;2024-02-21T09:09:04;19.87;48.68
71649;SHT31;70112;45.624;11.760;2024-02-21T09:11:30;20.50;47.08
71649;SHT31;70112;45.624;11.760;2024-02-21T09:13:55;21.04;46.19
71649;SHT31;70112;45.624;11.760;2024-02-21T09:16:21;21.52;45.16
71649;SHT31;70112;45.624;11.760;2024-02-21T09:18:47;21.95;44.02
71649;SHT31;70112;45.624;11.760;2024-02-21T09:21:13;22.32;42.73
71649;SHT31;70112;45.624;11.760;2024-02-21T09:23:38;22.68;41.67
71649;SHT31;70112;45.624;11.760;2024-02-21T09:26:04;22.95;40.76
71649;SHT31;70112;45.624;11.760;2024-02-21T09:28:30;23.11;39.78
71649;SHT31;70112;45.624;11.760;2024-02-21T09:30:55;23.22;39.27
71649;SHT31;70112;45.624;11.760;2024-02-21T09:33:21;23.22;38.83
71649;SHT31;70112;45.624;11.760;2024-02-21T09:35:46;22.93;38.57
71649;SHT31;70112;45.624;11.760;2024-02-21T09:38:12;22.48;38.44
71649;SHT31;70112;45.624;11.760;2024-02-21T09:40:38;21.96;38.58
71649;SHT31;70112;45.624;11.760;2024-02-21T09:43:05;21.51;39.06
71649;SHT31;70112;45.624;11.760;2024-02-21T09:45:32;21.13;39.18
71649;SHT31;70112;45.624;11.760;2024-02-21T09:48:15;20.77;39.48
71649;SHT31;70112;45.624;11.760;2024-02-21T09:51:02;20.40;39.93
71649;SHT31;70112;45.624;11.760;2024-02-21T09:53:29;20.14;39.90
71649;SHT31;70112;45.624;11.760;2024-02-21T09:55:55;19.90;40.25
71649;SHT31;70112;45.624;11.760;2024-02-21T09:58:22;19.70;40.30
71649;SHT31;70112;45.624;11.760;2024-02-21T10:00:49;19.52;40.32
71649;SHT31;70112;45.624;11.760;2024-02-21T10:03:14;19.33;40.38
71649;SHT31;70112;45.624;11.760;2024-02-21T10:05:45;19.15;40.89
71649;SHT31;70112;45.624;11.760;2024-02-21T10:08:15;18.97;41.10
71649;SHT31;70112;45.624;11.760;2024-02-21T10:10:44;18.77;41.03
71649;SHT31;70112;45.624;11.760;2024-02-21T10:13:21;18.60;41.00
71649;SHT31;70112;45.624;11.760;2024-02-21T10:16:02;18.44;41.28
71649;SHT31;70112;45.624;11.760;2024-02-21T10:18:35;18.32;41.36
71649;SHT31;70112;45.624;11.760;2024-02-21T10:21:04;18.17;41.19
71649;SHT31;70112;45.624;11.760;2024-02-21T10:23:50;18.03;41.74
71649;SHT31;70112;45.624;11.760;2024-02-21T10:26:20;17.92;42.18
71649;SHT31;70112;45.624;11.760;2024-02-21T10:28:49;17.80;42.20
71649;SHT31;70112;45.624;11.760;2024-02-21T10:31:23;17.69;42.17
71649;SHT31;70112;45.624;11.760;2024-02-21T10:33:57;17.59;42.58
71649;SHT31;70112;45.624;11.760;2024-02-21T10:36:30;17.50;42.30
71649;SHT31;70112;45.624;11.760;2024-02-21T10:38:56;17.38;42.55
71649;SHT31;70112;45.624;11.760;2024-02-21T10:41:22;17.29;42.66
71649;SHT31;70112;45.624;11.760;2024-02-21T10:43:50;17.25;42.69
71649;SHT31;70112;45.624;11.760;2024-02-21T10:46:19;17.24;42.87
71649;SHT31;70112;45.624;11.760;2024-02-21T10:48:46;17.22;43.04
71649;SHT31;70112;45.624;11.760;2024-02-21T10:51:19;17.23;42.86
71649;SHT31;70112;45.624;11.760;2024-02-21T10:56:22;17.19;43.41
71649;SHT31;70112;45.624;11.760;2024-02-21T10:58:55;17.18;43.02
71649;SHT31;70112;45.624;11.760;2024-02-21T11:01:23;17.17;43.21
71649;SHT31;70112;45.624;11.760;2024-02-21T11:03:52;17.16;43.49
71649;SHT31;70112;45.624;11.760;2024-02-21T11:06:19;17.16;44.10
71649;SHT31;70112;45.624;11.760;2024-02-21T11:08:47;17.14;43.86
71649;SHT31;70112;45.624;11.760;2024-02-21T11:11:14;17.13;43.52
71649;SHT31;70112;45.624;11.760;2024-02-21T11:13:45;17.09;43.74
71649;SHT31;70112;45.624;11.760;2024-02-21T11:16:12;17.07;43.93
71649;SHT31;70112;45.624;11.760;2024-02-21T11:18:48;17.06;44.50
71649;SHT31;70112;45.624;11.760;2024-02-21T11:21:14;17.04;44.48
71649;SHT31;70112;45.624;11.760;2024-02-21T11:23:40;17.03;44.45
71649;SHT31;70112;45.624;11.760;2024-02-21T11:26:07;17.01;44.71
71649;SHT31;70112;45.624;11.760;2024-02-21T11:28:36;17.00;44.50
71649;SHT31;70112;45.624;11.760;2024-02-21T11:31:09;16.98;44.89
71649;SHT31;70112;45.624;11.760;2024-02-21T11:33:40;16.93;44.71
71649;SHT31;70112;45.624;11.760;2024-02-21T11:36:10;16.91;45.24
71649;SHT31;70112;45.624;11.760;2024-02-21T11:38:36;16.89;45.21
71649;SHT31;70112;45.624;11.760;2024-02-21T11:41:02;16.87;45.53
71649;SHT31;70112;45.624;11.760;2024-02-21T11:43:28;16.86;45.24
71649;SHT31;70112;45.624;11.760;2024-02-21T11:46:00;16.85;45.06
71649;SHT31;70112;45.624;11.760;2024-02-21T11:48:28;16.82;44.93
71649;SHT31;70112;45.624;11.760;2024-02-21T11:50:55;16.82;45.20
71649;SHT31;70112;45.624;11.760;2024-02-21T11:53:21;16.80;45.50
71649;SHT31;70112;45.624;11.760;2024-02-21T11:55:47;16.80;45.68
71649;SHT31;70112;45.624;11.760;2024-02-21T11:58:13;16.78;45.71
71649;SHT31;70112;45.624;11.760;2024-02-21T12:00:39;16.77;45.62
71649;SHT31;70112;45.624;11.760;2024-02-21T12:03:06;16.75;45.88
71649;SHT31;70112;45.624;11.760;2024-02-21T12:05:31;16.75;45.99
71649;SHT31;70112;45.624;11.760;2024-02-21T12:07:57;16.74;46.07
71649;SHT31;70112;45.624;11.760;2024-02-21T12:10:23;16.73;46.10
71649;SHT31;70112;45.624;11.760;2024-02-21T12:12:49;16.73;46.68
71649;SHT31;70112;45.624;11.760;2024-02-21T12:15:17;16.73;46.72
71649;SHT31;70112;45.624;11.760;2024-02-21T12:17:44;16.70;46.69
71649;SHT31;70112;45.624;11.760;2024-02-21T12:20:10;16.69;47.07
71649;SHT31;70112;45.624;11.760;2024-02-21T12:22:39;16.70;47.26
71649;SHT31;70112;45.624;11.760;2024-02-21T12:25:16;16.67;47.28
71649;SHT31;70112;45.624;11.760;2024-02-21T12:27:51;16.66;47.57
71649;SHT31;70112;45.624;11.760;2024-02-21T12:30:17;16.63;47.28
71649;SHT31;70112;45.624;11.760;2024-02-21T12:32:44;16.60;47.32
71649;SHT31;70112;45.624;11.760;2024-02-21T12:35:11;16.58;47.38
71649;SHT31;70112;45.624;11.760;2024-02-21T12:37:36;16.56;48.07
71649;SHT31;70112;45.624;11.760;2024-02-21T12:40:05;16.57;48.85
71649;SHT31;70112;45.624;11.760;2024-02-21T12:42:33;16.58;49.40
71649;SHT31;70112;45.624;11.760;2024-02-21T12:44:59;16.58;49.21
71649;SHT31;70112;45.624;11.760;2024-02-21T12:47:25;16.55;49.76
71649;SHT31;70112;45.624;11.760;2024-02-21T12:49:52;16.57;50.20
71649;SHT31;70112;45.624;11.760;2024-02-21T12:52:18;16.56;50.10
71649;SHT31;70112;45.624;11.760;2024-02-21T12:54:44;16.55;50.41
71649;SHT31;70112;45.624;11.760;2024-02-21T12:57:09;16.54;50.36
71649;SHT31;70112;45.624;11.760;2024-02-21T12:59:35;16.52;50.55
71649;SHT31;70112;45.624;11.760;2024-02-21T13:02:00;16.52;50.80
71649;SHT31;70112;45.624;11.760;2024-02-21T13:04:26;16.53;50.92
71649;SHT31;70112;45.624;11.760;2024-02-21T13:06:52;16.50;51.19
71649;SHT31;70112;45.624;11.760;2024-02-21T13:09:17;16.50;50.93
71649;SHT31;70112;45.624;11.760;2024-02-21T13:11:43;16.49;50.72
71649;SHT31;70112;45.624;11.760;2024-02-21T13:14:12;16.48;50.83
71649;SHT31;70112;45.624;11.760;2024-02-21T13:16:38;16.49;50.96
71649;SHT31;70112;45.624;11.760;2024-02-21T13:19:06;16.48;50.93
71649;SHT31;70112;45.624;11.760;2024-02-21T13:21:35;16.47;50.92
71649;SHT31;70112;45.624;11.760;2024-02-21T13:24:01;16.46;50.83
71649;SHT31;70112;45.624;11.760;2024-02-21T13:26:28;16.45;50.94
71649;SHT31;70112;45.624;11.760;2024-02-21T13:28:53;16.45;50.83
71649;SHT31;70112;45.624;11.760;2024-02-21T13:31:20;16.44;50.97
71649;SHT31;70112;45.624;11.760;2024-02-21T13:33:45;16.42;50.85
71649;SHT31;70112;45.624;11.760;2024-02-21T13:36:11;16.40;51.00
71649;SHT31;70112;45.624;11.760;2024-02-21T13:38:37;16.39;50.79
71649;SHT31;70112;45.624;11.760;2024-02-21T13:41:04;16.37;50.68
71649;SHT31;70112;45.624;11.760;2024-02-21T13:43:31;16.35;50.72
71649;SHT31;70112;45.624;11.760;2024-02-21T13:46:00;16.35;51.21
71649;SHT31;70112;45.624;11.760;2024-02-21T13:48:27;16.35;51.34
71649;SHT31;70112;45.624;11.760;2024-02-21T13:50:54;16.37;51.47
71649;SHT31;70112;45.624;11.760;2024-02-21T13:53:20;16.37;51.09
71649;SHT31;70112;45.624;11.760;2024-02-21T13:55:46;16.36;51.09
71649;SHT31;70112;45.624;11.760;2024-02-21T13:58:12;16.37;51.98
71649;SHT31;70112;45.624;11.760;2024-02-21T14:00:37;16.36;51.34
71649;SHT31;70112;45.624;11.760;2024-02-21T14:03:03;16.37;51.29
71649;SHT31;70112;45.624;11.760;2024-02-21T14:05:29;16.38;51.80
71649;SHT31;70112;45.624;11.760;2024-02-21T14:07:55;16.39;52.04
71649;SHT31;70112;45.624;11.760;2024-02-21T14:10:21;16.40;51.86
71649;SHT31;70112;45.624;11.760;2024-02-21T14:12:47;16.40;51.78
71649;SHT31;70112;45.624;11.760;2024-02-21T14:15:13;16.40;52.06
71649;SHT31;70112;45.624;11.760;2024-02-21T14:17:39;16.40;52.33
71649;SHT31;70112;45.624;11.760;2024-02-21T14:20:06;16.40;52.28
71649;SHT31;70112;45.624;11.760;2024-02-21T14:22:32;16.42;52.73
71649;SHT31;70112;45.624;11.760;2024-02-21T14:24:59;16.43;52.70
71649;SHT31;70112;45.624;11.760;2024-02-21T14:27:25;16.43;52.43
71649;SHT31;70112;45.624;11.760;2024-02-21T14:29:51;16.43;52.85
71649;SHT31;70112;45.624;11.760;2024-02-21T14:32:18;16.45;52.84
71649;SHT31;70112;45.624;11.760;2024-02-21T14:34:45;16.43;53.04
71649;SHT31;70112;45.624;11.760;2024-02-21T14:37:10;16.43;52.95
71649;SHT31;70112;45.624;11.760;2024-02-21T14:39:36;16.43;52.46
71649;SHT31;70112;45.624;11.760;2024-02-21T14:42:01;16.43;52.47
71649;SHT31;70112;45.624;11.760;2024-02-21T14:44:28;16.41;52.53
71649;SHT31;70112;45.624;11.760;2024-02-21T14:46:54;16.39;52.41
71649;SHT31;70112;45.624;11.760;2024-02-21T14:49:19;16.39;52.87
71649;SHT31;70112;45.624;11.760;2024-02-21T14:51:45;16.37;53.26
71649;SHT31;70112;45.624;11.760;2024-02-21T14:54:10;16.34;53.17
71649;SHT31;70112;45.624;11.760;2024-02-21T14:56:36;16.33;53.50
71649;SHT31;70112;45.624;11.760;2024-02-21T14:59:02;16.30;53.63
71649;SHT31;70112;45.624;11.760;2024-02-21T15:01:29;16.27;53.66
71649;SHT31;70112;45.624;11.760;2024-02-21T15:03:54;16.24;53.99
71649;SHT31;70112;45.624;11.760;2024-02-21T15:06:20;16.23;54.36
71649;SHT31;70112;45.624;11.760;2024-02-21T15:08:45;16.21;54.37
71649;SHT31;70112;45.624;11.760;2024-02-21T15:11:11;16.19;54.43
71649;SHT31;70112;45.624;11.760;2024-02-21T15:13:36;16.16;54.65
71649;SHT31;70112;45.624;11.760;2024-02-21T15:16:02;16.14;54.48
71649;SHT31;70112;45.624;11.760;2024-02-21T15:18:29;16.12;54.13
71649;SHT31;70112;45.624;11.760;2024-02-21T15:20:58;16.10;53.83
71649;SHT31;70112;45.624;11.760;2024-02-21T15:23:24;16.08;53.92
71649;SHT31;70112;45.624;11.760;2024-02-21T15:25:50;16.06;53.62
71649;SHT31;70112;45.624;11.760;2024-02-21T15:28:15;16.04;53.27
71649;SHT31;70112;45.624;11.760;2024-02-21T15:30:41;16.01;53.55
71649;SHT31;70112;45.624;11.760;2024-02-21T15:33:06;15.98;53.79
71649;SHT31;70112;45.624;11.760;2024-02-21T15:35:32;15.94;53.80
71649;SHT31;70112;45.624;11.760;2024-02-21T15:37:58;15.90;53.41
71649;SHT31;70112;45.624;11.760;2024-02-21T15:43:11;15.82;53.37
71649;SHT31;70112;45.624;11.760;2024-02-21T15:45:37;15.79;53.26
71649;SHT31;70112;45.624;11.760;2024-02-21T15:48:06;15.76;53.18
71649;SHT31;70112;45.624;11.760;2024-02-21T15:50:32;15.72;53.26
71649;SHT31;70112;45.624;11.760;2024-02-21T15:52:58;15.67;53.29